sensor_id;sensor_type;location;lat;lon;timestamp;pressure;altitude;pressure_sealevel;temperature;humidity
21821;BME280;11073;48.586;12.066;2023-04-29T00:01:06;96126.84;;;12.63;81.83
21821;BME280;11073;48.586;12.066;2023-04-29T00:03:35;96125.22;;;12.62;81.76
21821;BME280;11073;48.586;12.066;2023-04-29T00:06:04;96122.25;;;12.63;81.98
21821;BME280;11073;48.586;12.066;2023-04-29T00:08:34;96120.56;;;12.57;81.87
21821;BME280;11073;48.586;12.066;2023-04-29T00:11:03;96097.03;;;12.36;82.04
21821;BME280;11073;48.586;12.066;2023-04-29T00:13:31;96121.91;;;12.55;82.14
21821;BME280;11073;48.586;12.066;2023-04-29T00:16:01;96109.41;;;12.54;81.97
21821;BME280;11073;48.586;12.066;2023-04-29T01:32:21;96105.22;;;12.41;81.74
21821;BME280;11073;48.586;12.066;2023-04-29T01:38:29;96104.94;;;12.42;81.09
21821;BME280;11073;48.586;12.066;2023-04-29T01:41:09;96100.06;;;12.39;81.13
21821;BME280;11073;48.586;12.066;2023-04-29T01:43:39;96105.00;;;12.48;81.12
21821;BME280;11073;48.586;12.066;2023-04-29T01:46:19;96094.41;;;12.46;80.56
21821;BME280;11073;48.586;12.066;2023-04-29T01:48:53;96104.19;;;12.47;80.56
21821;BME280;11073;48.586;12.066;2023-04-29T01:51:22;96076.34;;;12.30;80.57
21821;BME280;11073;48.586;12.066;2023-04-29T01:53:52;96109.63;;;12.47;80.12
21821;BME280;11073;48.586;12.066;2023-04-29T01:56:21;96100.38;;;12.48;80.19
21821;BME280;11073;48.586;12.066;2023-04-29T01:59:13;96094.34;;;12.41;80.12
21821;BME280;11073;48.586;12.066;2023-04-29T02:02:07;96104.75;;;12.49;79.92
21821;BME280;11073;48.586;12.066;2023-04-29T02:04:45;96089.47;;;12.43;79.78
21821;BME280;11073;48.586;12.066;2023-04-29T02:07:14;96101.75;;;12.51;79.63
21821;BME280;11073;48.586;12.066;2023-04-29T02:09:45;96104.22;;;12.52;79.57
21821;BME280;11073;48.586;12.066;2023-04-29T02:12:14;96101.50;;;12.52;79.41
21821;BME280;11073;48.586;12.066;2023-04-29T02:14:43;96105.28;;;12.51;79.26
21821;BME280;11073;48.586;12.066;2023-04-29T02:17:14;96106.38;;;12.50;79.40
21821;BME280;11073;48.586;12.066;2023-04-29T02:19:45;96108.00;;;12.51;78.83
21821;BME280;11073;48.586;12.066;2023-04-29T02:22:14;96101.75;;;12.51;78.83
21821;BME280;11073;48.586;12.066;2023-04-29T02:24:43;96097.41;;;12.50;79.05
21821;BME280;11073;48.586;12.066;2023-04-29T02:27:12;96104.47;;;12.51;78.66
21821;BME280;11073;48.586;12.066;2023-04-29T02:29:41;96105.56;;;12.50;78.80
21821;BME280;11073;48.586;12.066;2023-04-29T02:32:10;96109.63;;;12.47;78.62
21821;BME280;11073;48.586;12.066;2023-04-29T02:34:41;96117.44;;;12.43;78.17
21821;BME280;11073;48.586;12.066;2023-04-29T02:37:12;96108.47;;;12.43;78.29
21821;BME280;11073;48.586;12.066;2023-04-29T02:39:40;96103.88;;;12.43;78.39
21821;BME280;11073;48.586;12.066;2023-04-29T02:42:11;96104.69;;;12.44;78.23
21821;BME280;11073;48.586;12.066;2023-04-29T02:44:40;96102.22;;;12.42;78.05
21821;BME280;11073;48.586;12.066;2023-04-29T02:47:09;96088.06;;;12.35;77.95
21821;BME280;11073;48.586;12.066;2023-04-29T02:49:38;96098.66;;;12.37;78.08
21821;BME280;11073;48.586;12.066;2023-04-29T02:52:06;96096.19;;;12.35;77.62
21821;BME280;11073;48.586;12.066;2023-04-29T02:54:37;96100.25;;;12.33;77.99
21821;BME280;11073;48.586;12.066;2023-04-29T02:57:07;96099.69;;;12.31;77.82
21821;BME280;11073;48.586;12.066;2023-04-29T02:59:36;96095.31;;;12.30;77.85
21821;BME280;11073;48.586;12.066;2023-04-29T03:02:05;96101.56;;;12.30;77.52
21821;BME280;11073;48.586;12.066;2023-04-29T03:04:34;96100.75;;;12.30;77.74
21821;BME280;11073;48.586;12.066;2023-04-29T03:07:03;96099.94;;;12.29;77.59
21821;BME280;11073;48.586;12.066;2023-04-29T03:09:32;96091.78;;;12.24;77.71
21821;BME280;11073;48.586;12.066;2023-04-29T03:12:02;96103.44;;;12.25;77.65
21821;BME280;11073;48.586;12.066;2023-04-29T03:14:31;96107.47;;;12.22;77.40
21821;BME280;11073;48.586;12.066;2023-04-29T03:17:00;96108.81;;;12.20;77.48
21821;BME280;11073;48.586;12.066;2023-04-29T03:19:29;96110.44;;;12.21;77.31
21821;BME280;11073;48.586;12.066;2023-04-29T03:21:59;96106.66;;;12.22;77.23
21821;BME280;11073;48.586;12.066;2023-04-29T03:24:28;96104.19;;;12.20;77.31
21821;BME280;11073;48.586;12.066;2023-04-29T03:26:58;96085.56;;;12.02;77.27
21821;BME280;11073;48.586;12.066;2023-04-29T03:29:28;96105.75;;;12.11;77.07
21821;BME280;11073;48.586;12.066;2023-04-29T03:31:57;96103.72;;;12.01;77.19
21821;BME280;11073;48.586;12.066;2023-04-29T03:34:26;96097.19;;;11.97;77.19
21821;BME280;11073;48.586;12.066;2023-04-29T03:37:10;96098.56;;;12.00;77.49
21821;BME280;11073;48.586;12.066;2023-04-29T03:40:13;96101.59;;;12.03;77.55
21821;BME280;11073;48.586;12.066;2023-04-29T03:43:09;96083.50;;;11.87;77.20
21821;BME280;11073;48.586;12.066;2023-04-29T03:45:39;96088.44;;;11.90;77.21
21821;BME280;11073;48.586;12.066;2023-04-29T03:48:08;96099.28;;;11.90;77.07
21821;BME280;11073;48.586;12.066;2023-04-29T03:50:37;96094.88;;;11.84;77.07
21821;BME280;11073;48.586;12.066;2023-04-29T03:53:06;96100.81;;;11.81;77.43
21821;BME280;11073;48.586;12.066;2023-04-29T03:55:35;96102.47;;;11.82;77.22
21821;BME280;11073;48.586;12.066;2023-04-29T03:58:04;96101.63;;;11.81;77.48
21821;BME280;11073;48.586;12.066;2023-04-29T04:00:33;96103.56;;;11.86;77.45
21821;BME280;11073;48.586;12.066;2023-04-29T04:03:07;96097.94;;;11.93;77.44
21821;BME280;11073;48.586;12.066;2023-04-29T04:05:37;96103.69;;;11.96;77.47
21821;BME280;11073;48.586;12.066;2023-04-29T04:08:10;96107.78;;;11.99;77.43
21821;BME280;11073;48.586;12.066;2023-04-29T04:10:50;96105.81;;;11.94;77.68
21821;BME280;11073;48.586;12.066;2023-04-29T04:13:27;96112.91;;;11.95;77.03
21821;BME280;11073;48.586;12.066;2023-04-29T04:15:57;96114.78;;;11.95;77.37
21821;BME280;11073;48.586;12.066;2023-04-29T04:18:27;96118.34;;;11.95;77.06
21821;BME280;11073;48.586;12.066;2023-04-29T04:20:56;96119.91;;;11.91;77.29
21821;BME280;11073;48.586;12.066;2023-04-29T04:23:25;96124.25;;;11.92;77.30
21821;BME280;11073;48.586;12.066;2023-04-29T04:25:54;96117.19;;;11.91;77.54
21821;BME280;11073;48.586;12.066;2023-04-29T04:28:42;96121.00;;;11.90;77.78
21821;BME280;11073;48.586;12.066;2023-04-29T04:31:18;96126.25;;;12.02;77.74
21821;BME280;11073;48.586;12.066;2023-04-29T04:33:48;96119.44;;;11.99;77.99
21821;BME280;11073;48.586;12.066;2023-04-29T04:36:17;96132.56;;;12.07;77.97
21821;BME280;11073;48.586;12.066;2023-04-29T04:38:47;96123.34;;;12.08;77.82
21821;BME280;11073;48.586;12.066;2023-04-29T04:41:15;96124.78;;;12.16;77.60
21821;BME280;11073;48.586;12.066;2023-04-29T04:43:46;96131.34;;;12.20;77.87
21821;BME280;11073;48.586;12.066;2023-04-29T04:46:22;96130.00;;;12.23;77.56
21821;BME280;11073;48.586;12.066;2023-04-29T04:49:12;96118.03;;;12.19;77.63
21821;BME280;11073;48.586;12.066;2023-04-29T04:51:48;96120.47;;;12.20;78.00
21821;BME280;11073;48.586;12.066;2023-04-29T04:54:18;96136.00;;;12.25;77.67
21821;BME280;11073;48.586;12.066;2023-04-29T04:56:50;96137.13;;;12.29;78.16
21821;BME280;11073;48.586;12.066;2023-04-29T04:59:19;96114.78;;;12.22;77.83
21821;BME280;11073;48.586;12.066;2023-04-29T05:01:48;96132.03;;;12.37;78.24
21821;BME280;11073;48.586;12.066;2023-04-29T05:04:18;96136.16;;;12.40;78.07
21821;BME280;11073;48.586;12.066;2023-04-29T05:06:47;96139.94;;;12.39;78.09
21821;BME280;11073;48.586;12.066;2023-04-29T05:09:18;96150.53;;;12.40;77.68
21821;BME280;11073;48.586;12.066;2023-04-29T05:11:47;96142.13;;;12.42;78.08
21821;BME280;11073;48.586;12.066;2023-04-29T05:14:17;96135.94;;;12.47;78.11
21821;BME280;11073;48.586;12.066;2023-04-29T05:16:46;96147.09;;;12.50;78.04
21821;BME280;11073;48.586;12.066;2023-04-29T05:19:14;96150.38;;;12.52;77.79
21821;BME280;11073;48.586;12.066;2023-04-29T05:21:45;96146.63;;;12.58;78.05
21821;BME280;11073;48.586;12.066;2023-04-29T05:24:15;96151.78;;;12.60;78.18
21821;BME280;11073;48.586;12.066;2023-04-29T05:26:44;96154.28;;;12.61;78.00
21821;BME280;11073;48.586;12.066;2023-04-29T05:29:15;96157.00;;;12.61;77.90
21821;BME280;11073;48.586;12.066;2023-04-29T05:31:49;96158.34;;;12.64;77.92
21821;BME280;11073;48.586;12.066;2023-04-29T05:34:18;96152.41;;;12.67;77.99
21821;BME280;11073;48.586;12.066;2023-04-29T05:36:48;96150.81;;;12.71;78.22
21821;BME280;11073;48.586;12.066;2023-04-29T05:39:16;96162.50;;;12.72;78.00
21821;BME280;11073;48.586;12.066;2023-04-29T05:41:53;96161.69;;;12.71;78.17
21821;BME280;11073;48.586;12.066;2023-04-29T05:44:36;96167.63;;;12.68;78.25
21821;BME280;11073;48.586;12.066;2023-04-29T05:47:06;96173.34;;;12.72;78.34
21821;BME280;11073;48.586;12.066;2023-04-29T05:49:35;96175.00;;;12.73;78.44
21821;BME280;11073;48.586;12.066;2023-04-29T05:52:07;96175.00;;;12.73;78.62
21821;BME280;11073;48.586;12.066;2023-04-29T05:54:41;96174.72;;;12.74;79.19
21821;BME280;11073;48.586;12.066;2023-04-29T05:57:10;96174.00;;;12.84;79.25
21821;BME280;11073;48.586;12.066;2023-04-29T05:59:39;96186.25;;;12.86;79.66
21821;BME280;11073;48.586;12.066;2023-04-29T06:02:08;96174.88;;;12.89;79.92
21821;BME280;11073;48.586;12.066;2023-04-29T06:04:40;96182.84;;;13.01;80.26
21821;BME280;11073;48.586;12.066;2023-04-29T06:07:26;96193.22;;;13.09;80.52
21821;BME280;11073;48.586;12.066;2023-04-29T06:10:15;96204.19;;;13.19;81.09
21821;BME280;11073;48.586;12.066;2023-04-29T06:12:45;96200.19;;;13.27;81.04
21821;BME280;11073;48.586;12.066;2023-04-29T06:15:15;96202.09;;;13.32;81.28
21821;BME280;11073;48.586;12.066;2023-04-29T06:17:44;96204.88;;;13.37;81.51
21821;BME280;11073;48.586;12.066;2023-04-29T06:20:13;96207.06;;;13.40;81.58
21821;BME280;11073;48.586;12.066;2023-04-29T06:22:45;96214.44;;;13.44;81.93
21821;BME280;11073;48.586;12.066;2023-04-29T06:25:15;96207.66;;;13.47;82.16
21821;BME280;11073;48.586;12.066;2023-04-29T06:27:46;96217.47;;;13.53;82.07
21821;BME280;11073;48.586;12.066;2023-04-29T06:30:18;96214.53;;;13.60;81.96
21821;BME280;11073;48.586;12.066;2023-04-29T06:32:47;96210.22;;;13.64;81.76
21821;BME280;11073;48.586;12.066;2023-04-29T06:35:16;96227.72;;;13.78;81.77
21821;BME280;11073;48.586;12.066;2023-04-29T06:38:05;96217.41;;;13.85;81.51
21821;BME280;11073;48.586;12.066;2023-04-29T06:40:53;96216.09;;;13.93;81.31
21821;BME280;11073;48.586;12.066;2023-04-29T06:43:45;96215.03;;;13.99;81.03
21821;BME280;11073;48.586;12.066;2023-04-29T06:46:47;96226.50;;;14.11;81.37
21821;BME280;11073;48.586;12.066;2023-04-29T06:49:20;96216.72;;;14.15;81.38
21821;BME280;11073;48.586;12.066;2023-04-29T06:51:49;96228.78;;;14.34;81.33
21821;BME280;11073;48.586;12.066;2023-04-29T06:54:19;96231.56;;;14.50;81.37
21821;BME280;11073;48.586;12.066;2023-04-29T06:56:49;96231.38;;;14.87;82.02
21821;BME280;11073;48.586;12.066;2023-04-29T06:59:18;96230.84;;;15.26;81.79
21821;BME280;11073;48.586;12.066;2023-04-29T07:01:47;96231.91;;;15.60;81.35
21821;BME280;11073;48.586;12.066;2023-04-29T07:04:18;96235.44;;;15.71;80.10
21821;BME280;11073;48.586;12.066;2023-04-29T07:06:48;96231.91;;;15.60;79.32
21821;BME280;11073;48.586;12.066;2023-04-29T07:09:18;96239.81;;;15.41;78.74
21821;BME280;11073;48.586;12.066;2023-04-29T07:11:47;96243.66;;;15.30;78.40
21821;BME280;11073;48.586;12.066;2023-04-29T07:14:19;96226.47;;;15.20;78.27
21821;BME280;11073;48.586;12.066;2023-04-29T07:16:52;96238.47;;;15.24;77.91
21821;BME280;11073;48.586;12.066;2023-04-29T07:19:21;96247.19;;;15.26;77.64
21821;BME280;11073;48.586;12.066;2023-04-29T07:21:50;96250.47;;;15.23;77.45
21821;BME280;11073;48.586;12.066;2023-04-29T07:24:20;96255.91;;;15.12;77.01
21821;BME280;11073;48.586;12.066;2023-04-29T07:26:49;96261.94;;;15.09;77.17
21821;BME280;11073;48.586;12.066;2023-04-29T07:29:18;96259.19;;;15.09;77.06
21821;BME280;11073;48.586;12.066;2023-04-29T07:31:46;96262.19;;;15.08;76.79
21821;BME280;11073;48.586;12.066;2023-04-29T07:34:15;96250.47;;;15.02;76.60
21821;BME280;11073;48.586;12.066;2023-04-29T07:36:44;96251.03;;;14.99;76.34
21821;BME280;11073;48.586;12.066;2023-04-29T07:39:12;96255.38;;;15.00;76.35
21821;BME280;11073;48.586;12.066;2023-04-29T07:41:46;96269.00;;;15.00;76.31
21821;BME280;11073;48.586;12.066;2023-04-29T07:44:15;96267.63;;;14.93;76.26
21821;BME280;11073;48.586;12.066;2023-04-29T07:46:43;96266.81;;;14.92;76.13
21821;BME280;11073;48.586;12.066;2023-04-29T07:49:13;96274.16;;;14.97;76.04
21821;BME280;11073;48.586;12.066;2023-04-29T07:51:42;96266.53;;;14.99;76.08
21821;BME280;11073;48.586;12.066;2023-04-29T07:54:11;96240.63;;;14.91;76.14
21821;BME280;11073;48.586;12.066;2023-04-29T07:56:39;96265.19;;;15.16;75.84
21821;BME280;11073;48.586;12.066;2023-04-29T07:59:09;96263.28;;;15.27;76.13
21821;BME280;11073;48.586;12.066;2023-04-29T08:01:39;96262.47;;;15.42;76.20
21821;BME280;11073;48.586;12.066;2023-04-29T08:04:08;96274.47;;;15.51;75.85
21821;BME280;11073;48.586;12.066;2023-04-29T08:06:46;96279.91;;;15.56;75.13
21821;BME280;11073;48.586;12.066;2023-04-29T08:09:16;96275.03;;;15.74;75.18
21821;BME280;11073;48.586;12.066;2023-04-29T08:11:45;96279.13;;;15.86;75.01
21821;BME280;11073;48.586;12.066;2023-04-29T08:14:14;96270.91;;;15.91;74.40
21821;BME280;11073;48.586;12.066;2023-04-29T08:16:43;96276.34;;;15.96;74.17
21821;BME280;11073;48.586;12.066;2023-04-29T08:19:11;96281.25;;;16.05;73.55
21821;BME280;11073;48.586;12.066;2023-04-29T08:21:40;96282.06;;;16.10;73.47
21821;BME280;11073;48.586;12.066;2023-04-29T08:24:09;96284.78;;;16.15;72.96
21821;BME280;11073;48.586;12.066;2023-04-29T08:26:38;96287.47;;;16.20;72.64
21821;BME280;11073;48.586;12.066;2023-04-29T08:29:07;96286.09;;;16.28;72.13
21821;BME280;11073;48.586;12.066;2023-04-29T08:31:37;96278.13;;;16.37;71.72
21821;BME280;11073;48.586;12.066;2023-04-29T08:34:06;96287.19;;;16.32;71.18
21821;BME280;11073;48.586;12.066;2023-04-29T08:36:34;96289.31;;;16.40;70.88
21821;BME280;11073;48.586;12.066;2023-04-29T08:39:05;96289.34;;;16.35;70.34
21821;BME280;11073;48.586;12.066;2023-04-29T08:41:35;96281.16;;;16.35;70.16
21821;BME280;11073;48.586;12.066;2023-04-29T08:44:04;96300.25;;;16.40;69.71
21821;BME280;11073;48.586;12.066;2023-04-29T08:46:33;96286.66;;;16.25;69.38
21821;BME280;11073;48.586;12.066;2023-04-29T08:49:04;96288.22;;;16.46;69.33
21821;BME280;11073;48.586;12.066;2023-04-29T08:51:34;96285.66;;;16.70;69.34
21821;BME280;11073;48.586;12.066;2023-04-29T08:54:02;96281.50;;;16.83;68.65
21821;BME280;11073;48.586;12.066;2023-04-29T08:56:31;96280.06;;;16.96;68.26
21821;BME280;11073;48.586;12.066;2023-04-29T08:59:01;96285.22;;;17.02;67.65
21821;BME280;11073;48.586;12.066;2023-04-29T09:01:30;96278.03;;;17.17;67.44
21821;BME280;11073;48.586;12.066;2023-04-29T09:04:08;96277.41;;;17.25;67.16
21821;BME280;11073;48.586;12.066;2023-04-29T09:06:38;96277.31;;;17.40;66.64
21821;BME280;11073;48.586;12.066;2023-04-29T09:09:07;96271.00;;;17.40;65.90
21821;BME280;11073;48.586;12.066;2023-04-29T09:11:37;96274.78;;;17.44;65.58
21821;BME280;11073;48.586;12.066;2023-04-29T09:14:06;96272.72;;;17.64;65.24
21821;BME280;11073;48.586;12.066;2023-04-29T09:16:36;96275.28;;;17.85;64.56
21821;BME280;11073;48.586;12.066;2023-04-29T09:19:06;96277.41;;;17.93;64.08
21821;BME280;11073;48.586;12.066;2023-04-29T09:21:36;96268.81;;;18.05;63.50
21821;BME280;11073;48.586;12.066;2023-04-29T09:24:05;96264.13;;;18.05;62.48
21821;BME280;11073;48.586;12.066;2023-04-29T09:26:40;96266.41;;;18.22;61.95
21821;BME280;11073;48.586;12.066;2023-04-29T09:29:11;96274.16;;;18.39;61.40
21821;BME280;11073;48.586;12.066;2023-04-29T09:31:43;96259.38;;;18.40;60.42
21821;BME280;11073;48.586;12.066;2023-04-29T09:34:14;96269.03;;;18.56;59.86
21821;BME280;11073;48.586;12.066;2023-04-29T09:36:44;96261.19;;;18.68;59.14
21821;BME280;11073;48.586;12.066;2023-04-29T09:39:14;96255.44;;;18.89;58.56
21821;BME280;11073;48.586;12.066;2023-04-29T09:42:05;96265.53;;;18.93;56.98
21821;BME280;11073;48.586;12.066;2023-04-29T09:44:40;96253.72;;;19.12;56.65
21821;BME280;11073;48.586;12.066;2023-04-29T09:47:09;96274.06;;;19.29;55.33
21821;BME280;11073;48.586;12.066;2023-04-29T09:49:43;96262.66;;;19.55;54.62
21821;BME280;11073;48.586;12.066;2023-04-29T09:52:13;96269.16;;;19.64;54.18
21821;BME280;11073;48.586;12.066;2023-04-29T09:54:43;96277.22;;;19.88;53.49
21821;BME280;11073;48.586;12.066;2023-04-29T09:57:12;96279.72;;;20.17;52.51
21821;BME280;11073;48.586;12.066;2023-04-29T09:59:42;96286.47;;;20.38;52.18
21821;BME280;11073;48.586;12.066;2023-04-29T10:02:12;96269.78;;;20.49;51.36
21821;BME280;11073;48.586;12.066;2023-04-29T10:04:46;96272.44;;;20.68;51.27
21821;BME280;11073;48.586;12.066;2023-04-29T10:07:16;96259.28;;;20.78;50.13
21821;BME280;11073;48.586;12.066;2023-04-29T10:09:46;96247.97;;;20.80;49.51
21821;BME280;11073;48.586;12.066;2023-04-29T10:12:16;96252.41;;;21.03;48.96
21821;BME280;11073;48.586;12.066;2023-04-29T10:14:49;96245.97;;;21.44;48.42
21821;BME280;11073;48.586;12.066;2023-04-29T10:17:25;96243.91;;;21.50;47.79
21821;BME280;11073;48.586;12.066;2023-04-29T10:20:03;96256.84;;;21.49;46.77
21821;BME280;11073;48.586;12.066;2023-04-29T10:22:39;96257.56;;;21.55;46.58
21821;BME280;11073;48.586;12.066;2023-04-29T10:25:10;96256.53;;;21.51;46.32
21821;BME280;11073;48.586;12.066;2023-04-29T10:27:41;96250.34;;;21.67;46.21
21821;BME280;11073;48.586;12.066;2023-04-29T10:30:12;96253.66;;;21.56;45.91
21821;BME280;11073;48.586;12.066;2023-04-29T10:32:41;96255.09;;;21.75;45.58
21821;BME280;11073;48.586;12.066;2023-04-29T10:35:17;96242.41;;;21.66;45.06
21821;BME280;11073;48.586;12.066;2023-04-29T10:37:47;96235.47;;;21.46;44.83
21821;BME280;11073;48.586;12.066;2023-04-29T10:40:22;96251.41;;;21.80;44.67
21821;BME280;11073;48.586;12.066;2023-04-29T10:42:54;96248.31;;;22.35;45.17
21821;BME280;11073;48.586;12.066;2023-04-29T10:45:23;96235.09;;;22.23;44.51
21821;BME280;11073;48.586;12.066;2023-04-29T10:48:12;96247.19;;;22.45;44.26
21821;BME280;11073;48.586;12.066;2023-04-29T10:51:02;96241.44;;;22.81;44.04
21821;BME280;11073;48.586;12.066;2023-04-29T10:53:31;96256.38;;;22.71;43.50
21821;BME280;11073;48.586;12.066;2023-04-29T10:56:09;96249.38;;;21.94;43.16
21821;BME280;11073;48.586;12.066;2023-04-29T10:58:43;96256.16;;;21.43;43.77
21821;BME280;11073;48.586;12.066;2023-04-29T11:01:13;96266.16;;;21.03;44.26
21821;BME280;11073;48.586;12.066;2023-04-29T11:03:50;96258.78;;;20.76;45.53
21821;BME280;11073;48.586;12.066;2023-04-29T11:06:38;96265.91;;;20.63;46.32
21821;BME280;11073;48.586;12.066;2023-04-29T11:09:09;96262.56;;;20.53;46.65
21821;BME280;11073;48.586;12.066;2023-04-29T11:11:46;96264.00;;;21.00;47.66
21821;BME280;11073;48.586;12.066;2023-04-29T11:14:21;96262.38;;;21.49;47.74
21821;BME280;11073;48.586;12.066;2023-04-29T11:16:52;96273.16;;;21.59;47.21
21821;BME280;11073;48.586;12.066;2023-04-29T11:19:22;96277.13;;;21.75;47.56
21821;BME280;11073;48.586;12.066;2023-04-29T11:22:11;96274.34;;;21.67;46.91
21821;BME280;11073;48.586;12.066;2023-04-29T11:24:50;96280.50;;;21.14;47.25
21821;BME280;11073;48.586;12.066;2023-04-29T11:27:21;96275.06;;;20.86;47.58
21821;BME280;11073;48.586;12.066;2023-04-29T11:29:52;96276.09;;;20.63;47.76
21821;BME280;11073;48.586;12.066;2023-04-29T11:32:26;96275.19;;;21.17;48.37
21821;BME280;11073;48.586;12.066;2023-04-29T11:35:06;96275.38;;;21.80;48.22
21821;BME280;11073;48.586;12.066;2023-04-29T11:37:38;96281.50;;;21.99;47.66
21821;BME280;11073;48.586;12.066;2023-04-29T11:40:08;96284.91;;;21.51;47.37
21821;BME280;11073;48.586;12.066;2023-04-29T11:42:40;96280.50;;;21.14;47.11
21821;BME280;11073;48.586;12.066;2023-04-29T11:45:10;96283.19;;;20.91;47.72
21821;BME280;11073;48.586;12.066;2023-04-29T11:47:42;96292.41;;;20.59;47.84
21821;BME280;11073;48.586;12.066;2023-04-29T11:50:11;96281.63;;;21.13;48.32
21821;BME280;11073;48.586;12.066;2023-04-29T11:52:45;96295.16;;;21.37;47.35
21821;BME280;11073;48.586;12.066;2023-04-29T11:55:15;96282.16;;;21.15;46.84
21821;BME280;11073;48.586;12.066;2023-04-29T11:57:43;96281.38;;;21.01;47.04
21821;BME280;11073;48.586;12.066;2023-04-29T12:00:13;96280.50;;;21.28;47.49
21821;BME280;11073;48.586;12.066;2023-04-29T12:02:44;96281.69;;;22.02;47.10
21821;BME280;11073;48.586;12.066;2023-04-29T12:05:14;96287.72;;;22.36;46.38
21821;BME280;11073;48.586;12.066;2023-04-29T12:07:45;96292.16;;;22.45;45.28
21821;BME280;11073;48.586;12.066;2023-04-29T12:10:16;96285.09;;;22.30;44.98
21821;BME280;11073;48.586;12.066;2023-04-29T12:12:45;96290.84;;;22.51;44.07
21821;BME280;11073;48.586;12.066;2023-04-29T12:15:15;96286.81;;;22.57;44.23
21821;BME280;11073;48.586;12.066;2023-04-29T12:17:44;96282.94;;;23.16;43.67
21821;BME280;11073;48.586;12.066;2023-04-29T12:20:14;96291.59;;;23.75;42.87
21821;BME280;11073;48.586;12.066;2023-04-29T12:22:43;96289.94;;;23.39;42.44
21821;BME280;11073;48.586;12.066;2023-04-29T12:25:14;96296.63;;;22.72;42.82
21821;BME280;11073;48.586;12.066;2023-04-29T12:27:43;96299.34;;;22.24;43.21
21821;BME280;11073;48.586;12.066;2023-04-29T12:30:12;96291.09;;;21.79;43.53
21821;BME280;11073;48.586;12.066;2023-04-29T12:32:41;96304.09;;;21.42;44.40
21821;BME280;11073;48.586;12.066;2023-04-29T12:35:14;96297.00;;;21.14;44.85
21821;BME280;11073;48.586;12.066;2023-04-29T12:37:47;96291.03;;;20.98;45.52
21821;BME280;11073;48.586;12.066;2023-04-29T12:40:17;96284.31;;;20.90;45.83
21821;BME280;11073;48.586;12.066;2023-04-29T12:42:47;96290.03;;;20.94;46.37
21821;BME280;11073;48.586;12.066;2023-04-29T12:45:29;96294.38;;;21.81;46.29
21821;BME280;11073;48.586;12.066;2023-04-29T12:47:59;96290.78;;;22.74;46.14
21821;BME280;11073;48.586;12.066;2023-04-29T12:50:31;96290.94;;;23.43;44.82
21821;BME280;11073;48.586;12.066;2023-04-29T12:53:01;96291.38;;;23.97;43.96
21821;BME280;11073;48.586;12.066;2023-04-29T12:55:32;96292.31;;;24.36;42.95
21821;BME280;11073;48.586;12.066;2023-04-29T12:58:02;96298.31;;;24.38;42.41
21821;BME280;11073;48.586;12.066;2023-04-29T13:00:32;96299.94;;;24.30;41.68
21821;BME280;11073;48.586;12.066;2023-04-29T13:03:04;96301.31;;;24.62;41.50
21821;BME280;11073;48.586;12.066;2023-04-29T13:05:34;96291.19;;;25.05;40.94
21821;BME280;11073;48.586;12.066;2023-04-29T13:08:03;96298.59;;;25.21;40.31
21821;BME280;11073;48.586;12.066;2023-04-29T13:10:34;96289.38;;;24.79;39.50
21821;BME280;11073;48.586;12.066;2023-04-29T13:13:02;96291.31;;;24.49;39.15
21821;BME280;11073;48.586;12.066;2023-04-29T13:15:31;96289.16;;;23.82;39.34
21821;BME280;11073;48.586;12.066;2023-04-29T13:18:00;96290.13;;;23.34;39.83
21821;BME280;11073;48.586;12.066;2023-04-29T13:20:29;96280.03;;;23.81;40.22
21821;BME280;11073;48.586;12.066;2023-04-29T13:22:59;96285.06;;;23.88;40.01
21821;BME280;11073;48.586;12.066;2023-04-29T13:25:27;96291.41;;;23.88;40.07
21821;BME280;11073;48.586;12.066;2023-04-29T13:27:58;96297.44;;;23.56;40.16
21821;BME280;11073;48.586;12.066;2023-04-29T13:30:27;96290.75;;;23.31;40.42
21821;BME280;11073;48.586;12.066;2023-04-29T13:32:56;96297.75;;;22.71;40.89
21821;BME280;11073;48.586;12.066;2023-04-29T13:35:38;96299.38;;;22.33;41.17
21821;BME280;11073;48.586;12.066;2023-04-29T13:38:08;96282.44;;;22.17;41.92
21821;BME280;11073;48.586;12.066;2023-04-29T13:40:36;96290.72;;;22.96;42.41
21821;BME280;11073;48.586;12.066;2023-04-29T13:43:14;96300.34;;;24.03;42.05
21821;BME280;11073;48.586;12.066;2023-04-29T13:45:59;96296.31;;;24.56;40.92
21821;BME280;11073;48.586;12.066;2023-04-29T13:48:27;96307.69;;;24.92;40.32
21821;BME280;11073;48.586;12.066;2023-04-29T13:51:17;96295.84;;;24.45;39.46
21821;BME280;11073;48.586;12.066;2023-04-29T13:53:48;96294.97;;;24.06;39.77
21821;BME280;11073;48.586;12.066;2023-04-29T13:56:20;96300.44;;;24.41;40.02
21821;BME280;11073;48.586;12.066;2023-04-29T13:58:53;96300.31;;;24.67;39.38
21821;BME280;11073;48.586;12.066;2023-04-29T14:01:25;96307.25;;;24.26;39.02
21821;BME280;11073;48.586;12.066;2023-04-29T14:03:57;96307.44;;;24.30;39.38
21821;BME280;11073;48.586;12.066;2023-04-29T14:06:27;96309.84;;;24.48;39.09
21821;BME280;11073;48.586;12.066;2023-04-29T14:08:57;96319.88;;;25.00;39.08
21821;BME280;11073;48.586;12.066;2023-04-29T14:11:28;96318.66;;;25.39;38.55
21821;BME280;11073;48.586;12.066;2023-04-29T14:13:58;96319.91;;;25.50;38.06
21821;BME280;11073;48.586;12.066;2023-04-29T14:16:27;96314.94;;;24.76;37.71
21821;BME280;11073;48.586;12.066;2023-04-29T14:18:56;96312.31;;;24.80;38.19
21821;BME280;11073;48.586;12.066;2023-04-29T14:21:28;96311.88;;;25.07;37.95
21821;BME280;11073;48.586;12.066;2023-04-29T14:23:57;96309.25;;;24.72;37.47
21821;BME280;11073;48.586;12.066;2023-04-29T14:26:27;96305.00;;;24.37;37.49
21821;BME280;11073;48.586;12.066;2023-04-29T14:28:56;96311.06;;;23.96;37.66
21821;BME280;11073;48.586;12.066;2023-04-29T14:31:27;96317.72;;;24.20;38.01